Time,TemperatureF,DewpointF,PressureIn,WindDirection,WindDirectionDegrees,WindSpeedMPH,WindSpeedGustMPH,Humidity,HourlyPrecipIn,Conditions,Clouds,dailyrainin,SolarRadiationWatts/m^2,SoftwareType,DateUTC
2013-02-26 00:01:00,28.0,27.0,-100.00,WNW,297,0.0,0.0,97,0.00,,,0.66,0.000000,,2013-02-26 05:01:00,
2013-02-26 00:12:00,28.0,27.0,-100.00,WNW,297,0.0,0.0,97,0.00,,,0.66,0.000000,,2013-02-26 05:12:00,
2013-02-26 00:22:00,28.0,27.0,-100.00,WNW,297,0.0,0.0,97,0.00,,,0.66,0.000000,,2013-02-26 05:22:00,
2013-02-26 00:52:00,29.0,28.0,-100.00,WNW,283,0.0,0.0,97,0.00,,,0.66,0.000000,,2013-02-26 05:52:00,
2013-02-26 01:02:00,29.0,28.0,-100.00,WNW,283,0.0,0.0,97,0.00,,,0.66,0.000000,,2013-02-26 06:02:00,
2013-02-26 01:11:00,29.0,28.0,-100.00,WNW,283,0.0,0.0,97,0.00,,,0.66,0.000000,,2013-02-26 06:11:00,
2013-02-26 01:21:00,29.0,28.0,-100.00,WNW,283,0.0,0.0,97,0.00,,,0.66,0.000000,,2013-02-26 06:21:00,
2013-02-26 01:52:00,30.0,29.0,-100.00,WNW,283,0.0,0.0,97,0.00,,,0.66,0.000000,,2013-02-26 06:52:00,
2013-02-26 02:01:00,30.0,29.0,-100.00,WNW,283,0.0,0.0,97,0.00,,,0.66,0.000000,,2013-02-26 07:01:00,
2013-02-26 02:11:00,30.0,29.0,-100.00,WNW,283,0.0,0.0,97,0.00,,,0.66,0.000000,,2013-02-26 07:11:00,
2013-02-26 02:22:00,30.0,29.0,-100.00,WNW,283,0.0,0.0,97,0.00,,,0.66,0.000000,,2013-02-26 07:22:00,
2013-02-26 02:52:00,30.0,29.0,-100.00,NNE,15,0.0,0.0,97,0.00,,,0.66,0.000000,,2013-02-26 07:52:00,
2013-02-26 03:02:00,30.0,29.0,-100.00,NNE,15,0.0,0.0,97,0.00,,,0.66,0.000000,,2013-02-26 08:02:00,
2013-02-26 03:11:00,30.0,29.0,-100.00,NNE,15,0.0,0.0,97,0.00,,,0.66,0.000000,,2013-02-26 08:11:00,
2013-02-26 03:21:00,30.0,29.0,-100.00,NNE,15,0.0,0.0,97,0.00,,,0.66,0.000000,,2013-02-26 08:21:00,
2013-02-26 03:52:00,31.0,31.0,-100.00,WNW,292,0.0,0.0,98,0.00,,,0.66,0.000000,,2013-02-26 08:52:00,
2013-02-26 04:02:00,31.0,31.0,-100.00,WNW,292,0.0,0.0,98,0.00,,,0.66,0.000000,,2013-02-26 09:02:00,
2013-02-26 04:11:00,31.0,31.0,-100.00,WNW,292,0.0,0.0,98,0.00,,,0.66,0.000000,,2013-02-26 09:11:00,
2013-02-26 04:21:00,31.0,31.0,-100.00,WNW,292,0.0,0.0,98,0.00,,,0.66,0.000000,,2013-02-26 09:21:00,
2013-02-26 04:52:00,31.0,31.0,-100.00,NW,324,0.0,0.0,98,0.00,,,0.66,0.000000,,2013-02-26 09:52:00,
2013-02-26 05:01:00,31.0,31.0,-100.00,NW,324,0.0,0.0,98,0.00,,,0.66,0.000000,,2013-02-26 10:01:00,
2013-02-26 05:11:00,31.0,31.0,-100.00,NW,324,0.0,0.0,98,0.00,,,0.66,0.000000,,2013-02-26 10:11:00,
2013-02-26 05:21:00,31.0,31.0,-100.00,NW,324,0.0,0.0,98,0.00,,,0.66,0.000000,,2013-02-26 10:21:00,
2013-02-26 05:52:00,31.0,31.0,-100.00,West,280,0.0,1.0,98,0.00,,,0.66,0.000000,,2013-02-26 10:52:00,
2013-02-26 06:01:00,31.0,31.0,-100.00,West,280,0.0,1.0,98,0.00,,,0.66,0.000000,,2013-02-26 11:01:00,
2013-02-26 06:12:00,31.0,31.0,-100.00,West,280,0.0,1.0,98,0.00,,,0.66,0.000000,,2013-02-26 11:12:00,
2013-02-26 06:22:00,31.0,31.0,-100.00,West,280,0.0,1.0,98,0.00,,,0.66,0.000000,,2013-02-26 11:22:00,
2013-02-26 06:53:00,31.0,31.0,-100.00,NW,305,0.0,2.0,98,0.00,,,0.66,1.000000,,2013-02-26 11:53:00,
2013-02-26 07:02:00,31.0,31.0,-100.00,NW,305,0.0,2.0,98,0.00,,,0.66,1.000000,,2013-02-26 12:02:00,
2013-02-26 07:11:00,31.0,31.0,-100.00,NW,305,0.0,2.0,98,0.00,,,0.66,1.000000,,2013-02-26 12:11:00,
2013-02-26 07:22:00,31.0,31.0,-100.00,NW,305,0.0,2.0,98,0.00,,,0.66,1.000000,,2013-02-26 12:22:00,
2013-02-26 07:53:00,32.0,32.0,-100.00,NW,311,0.0,3.0,98,0.00,,,0.66,10.000000,,2013-02-26 12:53:00,
2013-02-26 08:02:00,32.0,32.0,-100.00,NW,311,0.0,3.0,98,0.00,,,0.66,10.000000,,2013-02-26 13:02:00,
2013-02-26 08:11:00,32.0,32.0,-100.00,NW,311,0.0,3.0,98,0.00,,,0.66,10.000000,,2013-02-26 13:11:00,
2013-02-26 08:22:00,32.0,32.0,-100.00,NW,311,0.0,3.0,98,0.00,,,0.66,10.000000,,2013-02-26 13:22:00,
2013-02-26 08:52:00,34.0,33.0,-100.00,NW,319,0.0,3.0,97,0.00,,,0.66,46.000000,,2013-02-26 13:52:00,
2013-02-26 09:02:00,34.0,33.0,-100.00,NW,319,0.0,3.0,97,0.00,,,0.66,46.000000,,2013-02-26 14:02:00,
2013-02-26 09:11:00,34.0,33.0,-100.00,NW,319,0.0,3.0,97,0.00,,,0.66,46.000000,,2013-02-26 14:11:00,
2013-02-26 09:21:00,34.0,33.0,-100.00,NW,319,0.0,3.0,97,0.00,,,0.66,46.000000,,2013-02-26 14:21:00,
2013-02-26 09:52:00,37.0,35.0,-100.00,North,2,1.0,4.0,91,0.00,,,0.62,94.000000,,2013-02-26 14:52:00,
2013-02-26 10:02:00,37.0,35.0,-100.00,North,2,1.0,4.0,91,0.00,,,0.62,94.000000,,2013-02-26 15:02:00,
2013-02-26 10:11:00,37.0,35.0,-100.00,North,2,1.0,4.0,91,0.00,,,0.62,94.000000,,2013-02-26 15:11:00,
2013-02-26 10:22:00,37.0,35.0,-100.00,North,2,1.0,4.0,91,0.00,,,0.62,94.000000,,2013-02-26 15:22:00,
2013-02-26 10:52:00,41.0,31.0,-100.00,East,79,2.0,6.0,68,0.00,,,0.51,159.000000,,2013-02-26 15:52:00,
2013-02-26 11:02:00,41.0,31.0,-100.00,East,79,2.0,6.0,68,0.00,,,0.51,159.000000,,2013-02-26 16:02:00,
2013-02-26 11:11:00,41.0,31.0,-100.00,East,79,2.0,6.0,68,0.00,,,0.51,159.000000,,2013-02-26 16:11:00,
2013-02-26 11:22:00,41.0,31.0,-100.00,East,79,2.0,6.0,68,0.00,,,0.51,159.000000,,2013-02-26 16:22:00,
2013-02-26 11:52:00,44.0,30.0,-100.00,ENE,74,4.0,8.0,58,0.00,,,0.26,271.000000,,2013-02-26 16:52:00,
2013-02-26 12:01:00,44.0,30.0,-100.00,ENE,74,4.0,8.0,58,0.00,,,0.26,271.000000,,2013-02-26 17:01:00,
2013-02-26 12:11:00,44.0,30.0,-100.00,ENE,74,4.0,8.0,58,0.00,,,0.26,271.000000,,2013-02-26 17:11:00,
2013-02-26 12:22:00,44.0,30.0,-100.00,ENE,74,4.0,8.0,58,0.00,,,0.26,271.000000,,2013-02-26 17:22:00,
2013-02-26 12:52:00,47.0,29.0,-100.00,East,95,3.0,10.0,49,0.00,,,0.15,435.000000,,2013-02-26 17:52:00,
2013-02-26 13:53:00,50.0,29.0,-100.00,East,99,3.0,8.0,44,-99.99,,,0.06,583.000000,,2013-02-26 18:53:00,
2013-02-26 14:52:00,45.0,29.0,-100.00,ESE,110,2.0,6.0,53,-99.99,,,0.01,371.000000,,2013-02-26 19:52:00,
2013-02-26 15:01:00,45.0,29.0,-100.00,ESE,110,2.0,6.0,53,-99.99,,,0.01,371.000000,,2013-02-26 20:01:00,
2013-02-26 15:11:00,45.0,29.0,-100.00,ESE,110,2.0,6.0,53,-99.99,,,0.01,371.000000,,2013-02-26 20:11:00,
2013-02-26 15:22:00,45.0,29.0,-100.00,ESE,110,2.0,6.0,53,-99.99,,,0.01,371.000000,,2013-02-26 20:22:00,
2013-02-26 16:51:00,42.0,31.0,-100.00,East,85,2.0,8.0,64,-99.99,,,0.01,208.000000,,2013-02-26 21:51:00,
2013-02-26 17:01:00,42.0,31.0,-100.00,East,85,2.0,8.0,64,-99.99,,,0.01,208.000000,,2013-02-26 22:01:00,
2013-02-26 17:11:00,42.0,31.0,-100.00,East,85,2.0,8.0,64,-99.99,,,0.01,208.000000,,2013-02-26 22:11:00,
2013-02-26 17:21:00,42.0,31.0,-100.00,East,85,2.0,8.0,64,-99.99,,,0.01,208.000000,,2013-02-26 22:21:00,
2013-02-26 17:52:00,37.0,30.0,-100.00,East,86,2.0,7.0,75,0.00,,,0.01,43.000000,,2013-02-26 22:52:00,
2013-02-26 18:01:00,37.0,30.0,-100.00,East,86,2.0,7.0,75,0.00,,,0.01,43.000000,,2013-02-26 23:01:00,
2013-02-26 18:11:00,37.0,30.0,-100.00,East,86,2.0,7.0,75,0.00,,,0.01,43.000000,,2013-02-26 23:11:00,
2013-02-26 18:21:00,37.0,30.0,-100.00,East,86,2.0,7.0,75,0.00,,,0.01,43.000000,,2013-02-26 23:21:00,
2013-02-26 18:52:00,35.0,29.0,-100.00,East,87,1.0,3.0,79,0.00,,,0.01,1.000000,,2013-02-26 23:52:00,
2013-02-26 19:02:00,35.0,29.0,-100.00,East,87,1.0,3.0,79,0.00,,,0.01,1.000000,,2013-02-27 00:02:00,
2013-02-26 19:11:00,35.0,29.0,-100.00,East,87,1.0,3.0,79,0.00,,,0.01,1.000000,,2013-02-27 00:11:00,
2013-02-26 19:22:00,35.0,29.0,-100.00,East,87,1.0,3.0,79,0.00,,,0.01,1.000000,,2013-02-27 00:22:00,
2013-02-26 19:52:00,36.0,31.0,-100.00,East,82,2.0,4.0,81,0.00,,,0.00,0.000000,,2013-02-27 00:52:00,
2013-02-26 20:01:00,36.0,31.0,-100.00,East,82,2.0,4.0,81,0.00,,,0.00,0.000000,,2013-02-27 01:01:00,
2013-02-26 20:11:00,36.0,31.0,-100.00,East,82,2.0,4.0,81,0.00,,,0.00,0.000000,,2013-02-27 01:11:00,
2013-02-26 20:22:00,36.0,31.0,-100.00,East,82,2.0,4.0,81,0.00,,,0.00,0.000000,,2013-02-27 01:22:00,
2013-02-26 20:52:00,37.0,30.0,-100.00,ESE,113,3.0,5.0,77,0.00,,,0.00,0.000000,,2013-02-27 01:52:00,
2013-02-26 21:02:00,37.0,30.0,-100.00,ESE,113,3.0,5.0,77,0.00,,,0.00,0.000000,,2013-02-27 02:02:00,
2013-02-26 21:16:00,37.0,30.0,-100.00,ESE,113,3.0,5.0,77,0.00,,,0.00,0.000000,,2013-02-27 02:16:00,
2013-02-26 21:24:00,37.0,30.0,-100.00,ESE,113,3.0,5.0,77,0.00,,,0.00,0.000000,,2013-02-27 02:24:00,
2013-02-26 21:52:00,36.0,27.0,-100.00,ESE,103,2.0,6.0,69,0.00,,,0.00,0.000000,,2013-02-27 02:52:00,
2013-02-26 22:02:00,36.0,27.0,-100.00,ESE,103,2.0,6.0,69,0.00,,,0.00,0.000000,,2013-02-27 03:02:00,
2013-02-26 22:11:00,36.0,27.0,-100.00,ESE,103,2.0,6.0,69,0.00,,,0.00,0.000000,,2013-02-27 03:11:00,
2013-02-26 22:22:00,36.0,27.0,-100.00,ESE,103,2.0,6.0,69,0.00,,,0.00,0.000000,,2013-02-27 03:22:00,
2013-02-26 22:52:00,37.0,28.0,-100.00,ESE,110,4.0,7.0,70,0.00,,,0.00,0.000000,,2013-02-27 03:52:00,
2013-02-26 23:02:00,37.0,28.0,-100.00,ESE,110,4.0,7.0,70,0.00,,,0.00,0.000000,,2013-02-27 04:02:00,
2013-02-26 23:12:00,37.0,28.0,-100.00,ESE,110,4.0,7.0,70,0.00,,,0.00,0.000000,,2013-02-27 04:12:00,
2013-02-26 23:22:00,37.0,28.0,-100.00,ESE,110,4.0,7.0,70,0.00,,,0.00,0.000000,,2013-02-27 04:22:00,
2013-02-26 23:52:00,37.0,29.0,-100.00,East,101,3.0,7.0,74,0.00,,,0.00,0.000000,,2013-02-27 04:52:00,